createdAt,value
2019-01-27T00:01:08.598Z,45.43
2019-01-27T00:03:38.482Z,46.80
2019-01-27T00:06:07.629Z,45.13
2019-01-27T00:08:36.694Z,42.93
2019-01-27T00:11:05.759Z,45.40
2019-01-27T00:13:34.870Z,40.77
2019-01-27T00:16:03.931Z,44.83
2019-01-27T00:18:33.000Z,44.37
2019-01-27T00:21:02.103Z,44.93
2019-01-27T00:23:31.181Z,43.13
2019-01-27T00:26:00.248Z,43.63
2019-01-27T00:28:29.654Z,44.70
2019-01-27T00:30:58.734Z,46.43
2019-01-27T00:33:27.812Z,44.50
2019-01-27T00:35:57.249Z,48.67
2019-01-27T00:38:26.332Z,46.13
2019-01-27T00:40:55.405Z,44.37
2019-01-27T00:43:24.513Z,43.93
2019-01-27T00:45:53.588Z,48.57
2019-01-27T00:48:22.653Z,47.83
2019-01-27T00:50:51.786Z,45.77
2019-01-27T00:53:20.857Z,46.23
2019-01-27T00:55:49.934Z,44.13
2019-01-27T00:58:19.034Z,48.43
2019-01-27T01:00:48.119Z,40.20
2019-01-27T01:03:17.168Z,46.37
2019-01-27T01:05:46.274Z,46.20
2019-01-27T01:08:15.349Z,41.50
2019-01-27T01:10:44.418Z,44.00
2019-01-27T01:13:13.531Z,44.63
2019-01-27T01:15:42.599Z,45.30
2019-01-27T01:18:11.692Z,44.20
2019-01-27T01:20:40.793Z,40.77
2019-01-27T01:23:09.852Z,38.17
2019-01-27T01:25:38.924Z,37.80
2019-01-27T01:28:08.024Z,38.87
2019-01-27T01:30:37.109Z,42.03
2019-01-27T01:33:06.170Z,41.47
2019-01-27T01:35:35.305Z,38.63
2019-01-27T01:38:04.365Z,42.40
2019-01-27T01:40:33.457Z,44.30
2019-01-27T01:43:02.581Z,44.30
2019-01-27T01:45:31.646Z,40.97
2019-01-27T01:48:00.719Z,42.93
2019-01-27T01:50:29.812Z,39.27
2019-01-27T01:52:58.862Z,33.17
2019-01-27T01:55:27.940Z,41.27
2019-01-27T01:57:57.116Z,33.90
2019-01-27T02:00:26.144Z,33.80
2019-01-27T02:02:55.216Z,35.53
2019-01-27T02:05:24.354Z,37.07
2019-01-27T02:07:53.396Z,37.27
2019-01-27T02:10:22.573Z,37.50
2019-01-27T02:12:51.694Z,38.77
2019-01-27T02:15:21.566Z,33.77
2019-01-27T02:17:50.649Z,39.17
2019-01-27T02:20:19.771Z,39.63
2019-01-27T02:22:48.834Z,37.53
2019-01-27T02:25:17.904Z,38.97
2019-01-27T02:27:47.010Z,38.60
2019-01-27T02:30:16.428Z,44.27
2019-01-27T02:32:45.474Z,36.37
2019-01-27T02:35:14.576Z,37.20
2019-01-27T02:37:43.642Z,24.77
2019-01-27T02:40:12.696Z,37.67
2019-01-27T02:42:41.822Z,39.83
2019-01-27T02:45:12.765Z,27.83
2019-01-27T02:47:41.877Z,33.50
2019-01-27T02:50:11.069Z,35.37
2019-01-27T02:52:40.135Z,38.67
2019-01-27T02:55:09.194Z,39.20
2019-01-27T02:57:38.291Z,36.93
2019-01-27T03:00:08.269Z,38.03
2019-01-27T03:02:37.365Z,28.10
2019-01-27T03:05:06.527Z,34.37
2019-01-27T03:07:35.616Z,35.67
2019-01-27T03:10:04.666Z,31.80
2019-01-27T03:12:33.826Z,36.00
2019-01-27T03:15:02.883Z,32.50
2019-01-27T03:17:31.941Z,36.63
2019-01-27T03:20:01.022Z,36.83
2019-01-27T03:22:30.078Z,32.23
2019-01-27T03:24:59.154Z,34.57
2019-01-27T03:27:28.265Z,34.00
2019-01-27T03:29:57.335Z,32.63
2019-01-27T03:32:26.399Z,31.70
2019-01-27T03:34:55.501Z,33.87
2019-01-27T03:37:24.574Z,34.53
2019-01-27T03:39:53.662Z,34.40
2019-01-27T03:42:22.748Z,31.70
2019-01-27T03:44:51.823Z,32.27
2019-01-27T03:47:20.873Z,32.27
2019-01-27T03:49:50.113Z,34.63
2019-01-27T03:52:19.516Z,33.17
2019-01-27T03:54:48.519Z,32.80
2019-01-27T03:57:17.615Z,32.73
2019-01-27T03:59:46.681Z,30.83
2019-01-27T04:02:15.753Z,32.50
2019-01-27T04:04:44.885Z,30.43
2019-01-27T04:07:13.959Z,32.93
2019-01-27T04:09:43.031Z,31.30
2019-01-27T04:12:12.132Z,35.37
2019-01-27T04:14:41.203Z,32.23
2019-01-27T04:17:10.276Z,33.23
2019-01-27T04:19:39.376Z,29.70
2019-01-27T04:22:08.453Z,34.87
2019-01-27T04:24:37.871Z,34.70
2019-01-27T04:27:06.879Z,36.40
2019-01-27T04:29:35.945Z,38.77
2019-01-27T04:32:05.023Z,44.60
2019-01-27T04:34:34.122Z,40.57
2019-01-27T04:37:03.208Z,43.70
2019-01-27T04:39:32.271Z,39.13
2019-01-27T04:42:01.460Z,39.10
2019-01-27T04:44:30.532Z,44.13
2019-01-27T04:46:59.600Z,37.33
2019-01-27T04:49:28.717Z,38.93
2019-01-27T04:51:57.786Z,38.87
2019-01-27T04:54:26.847Z,41.57
2019-01-27T04:56:55.991Z,41.00
2019-01-27T04:59:25.065Z,39.13
2019-01-27T05:01:54.126Z,36.07
2019-01-27T05:04:23.221Z,38.50
2019-01-27T05:06:52.281Z,38.00
2019-01-27T05:09:22.185Z,40.57
2019-01-27T05:11:51.277Z,38.17
2019-01-27T05:14:20.340Z,32.23
2019-01-27T05:16:49.402Z,37.73
2019-01-27T05:19:18.521Z,35.47
2019-01-27T05:21:47.577Z,38.50
2019-01-27T05:24:16.646Z,37.30
2019-01-27T05:26:45.732Z,35.67
2019-01-27T05:29:14.789Z,35.37
2019-01-27T05:31:43.858Z,34.70
2019-01-27T05:34:12.939Z,33.83
2019-01-27T05:36:41.996Z,31.30
2019-01-27T05:39:11.056Z,34.60
2019-01-27T05:41:40.153Z,27.47
2019-01-27T05:44:09.490Z,34.03
2019-01-27T05:46:38.485Z,32.63
2019-01-27T05:49:07.883Z,33.90
2019-01-27T05:51:36.880Z,36.23
2019-01-27T05:54:05.944Z,31.70
2019-01-27T05:56:35.037Z,42.80
2019-01-27T05:59:04.101Z,43.53
2019-01-27T06:01:33.166Z,33.43
2019-01-27T06:04:02.270Z,36.80
2019-01-27T06:06:31.321Z,36.23
2019-01-27T06:09:00.373Z,35.13
2019-01-27T06:11:30.332Z,34.80
2019-01-27T06:13:59.382Z,30.57
2019-01-27T06:16:28.451Z,36.27
2019-01-27T06:18:57.541Z,27.53
2019-01-27T06:21:26.609Z,30.93
2019-01-27T06:23:55.659Z,29.37
2019-01-27T06:26:24.978Z,41.90
2019-01-27T06:28:54.030Z,32.87
2019-01-27T06:31:23.097Z,48.40
2019-01-27T06:33:52.190Z,43.60
2019-01-27T06:36:21.252Z,43.13
2019-01-27T06:38:50.311Z,35.03
2019-01-27T06:41:19.399Z,35.37
2019-01-27T06:43:48.468Z,30.67
2019-01-27T06:46:17.578Z,25.07
2019-01-27T06:48:46.681Z,35.67
2019-01-27T06:51:15.742Z,38.23
2019-01-27T06:53:44.797Z,42.57
2019-01-27T06:56:13.888Z,60.27
2019-01-27T07:01:28.121Z,43.57
2019-01-27T07:03:57.960Z,37.33
2019-01-27T07:06:27.027Z,33.67
2019-01-27T07:08:56.236Z,40.27
2019-01-27T07:11:25.288Z,42.17
2019-01-27T07:16:38.701Z,37.40
2019-01-27T07:19:07.782Z,55.43
2019-01-27T07:21:37.655Z,46.67
2019-01-27T07:24:07.521Z,41.77
2019-01-27T07:26:37.439Z,47.43
2019-01-27T07:29:06.504Z,42.30
2019-01-27T07:31:38.323Z,31.13
2019-01-27T07:34:12.804Z,29.23
2019-01-27T07:36:41.917Z,41.00
2019-01-27T07:39:13.800Z,33.60
2019-01-27T07:41:42.922Z,40.47
2019-01-27T07:44:11.974Z,35.40
2019-01-27T07:46:42.976Z,35.80
2019-01-27T07:49:18.003Z,38.97
2019-01-27T07:51:47.995Z,46.00
2019-01-27T07:54:21.993Z,41.43
2019-01-27T07:56:52.027Z,39.13
2019-01-27T07:59:26.166Z,44.60
2019-01-27T08:02:00.081Z,42.53
2019-01-27T08:04:29.157Z,31.70
2019-01-27T08:07:03.060Z,22.60
2019-01-27T08:09:32.942Z,42.13
2019-01-27T08:12:02.013Z,52.30
2019-01-27T08:14:32.790Z,62.03
2019-01-27T08:17:01.926Z,47.33
2019-01-27T08:22:16.779Z,44.37
2019-01-27T08:24:48.702Z,26.80
2019-01-27T08:27:19.765Z,79.57
2019-01-27T08:29:57.487Z,103.47
2019-01-27T08:32:25.662Z,52.17
2019-01-27T08:34:54.737Z,61.70
2019-01-27T08:37:29.637Z,49.60
2019-01-27T08:39:58.689Z,41.47
2019-01-27T08:42:27.758Z,40.33
2019-01-27T08:44:57.770Z,47.67
2019-01-27T08:47:26.821Z,43.87
2019-01-27T08:49:55.902Z,51.37
2019-01-27T08:52:25.008Z,37.57
2019-01-27T08:54:54.071Z,40.70
2019-01-27T08:57:23.132Z,46.37
2019-01-27T08:59:52.217Z,44.03
2019-01-27T09:02:21.273Z,48.83
2019-01-27T09:04:51.284Z,38.87
2019-01-27T09:07:22.307Z,44.43
2019-01-27T09:09:52.296Z,40.50
2019-01-27T09:12:27.386Z,48.30
2019-01-27T09:14:58.050Z,42.97
2019-01-27T09:17:29.902Z,42.40
2019-01-27T09:19:58.952Z,18.83
2019-01-27T09:22:28.828Z,36.30
2019-01-27T09:24:57.926Z,43.33
2019-01-27T09:27:26.985Z,48.17
2019-01-27T09:30:01.040Z,50.97
2019-01-27T09:32:30.105Z,47.43
2019-01-27T09:35:04.653Z,39.60
2019-01-27T09:37:35.627Z,43.27
2019-01-27T09:40:10.367Z,38.33
2019-01-27T09:42:44.933Z,62.07
2019-01-27T09:45:14.050Z,43.50
2019-01-27T09:47:48.827Z,29.47
2019-01-27T09:50:20.769Z,32.03
2019-01-27T09:52:52.786Z,26.67
2019-01-27T09:55:21.878Z,28.23
2019-01-27T09:57:53.777Z,43.60
2019-01-27T10:00:22.899Z,42.23
2019-01-27T10:02:55.739Z,50.70
2019-01-27T10:05:25.862Z,76.77
2019-01-27T10:08:00.412Z,51.50
2019-01-27T10:10:35.447Z,32.27
2019-01-27T10:13:05.513Z,55.73
2019-01-27T10:18:19.305Z,47.60
2019-01-27T10:20:52.381Z,56.90
2019-01-27T10:23:22.259Z,57.17
2019-01-27T10:25:51.350Z,61.43
2019-01-27T10:28:20.426Z,36.80
2019-01-27T10:30:49.496Z,65.90
2019-01-27T10:33:23.753Z,49.90
2019-01-27T10:35:52.802Z,52.20
2019-01-27T10:38:22.787Z,37.67
2019-01-27T10:40:51.863Z,36.43
2019-01-27T10:43:23.782Z,55.37
2019-01-27T10:45:52.867Z,33.00
2019-01-27T10:48:23.857Z,38.13
2019-01-27T10:50:57.912Z,48.33
2019-01-27T10:53:26.951Z,45.17
2019-01-27T10:55:57.865Z,52.80
2019-01-27T10:58:26.959Z,54.20
2019-01-27T11:00:57.952Z,35.73
2019-01-27T11:03:31.848Z,32.13
2019-01-27T11:06:02.828Z,47.50
2019-01-27T11:08:31.874Z,35.77
2019-01-27T11:11:01.806Z,45.10
2019-01-27T11:13:31.676Z,44.03
2019-01-27T11:16:02.566Z,38.27
2019-01-27T11:18:36.608Z,48.77
2019-01-27T11:21:05.667Z,50.50
2019-01-27T11:23:36.653Z,18.03
2019-01-27T11:26:05.800Z,45.90
2019-01-27T11:28:34.857Z,43.87
2019-01-27T11:31:07.789Z,49.33
2019-01-27T11:33:40.679Z,51.47
2019-01-27T11:36:15.306Z,37.40
2019-01-27T11:38:44.350Z,36.13
2019-01-27T11:41:14.205Z,47.07
2019-01-27T11:43:44.130Z,43.80
2019-01-27T11:46:17.190Z,41.37
2019-01-27T11:48:48.198Z,49.57
2019-01-27T11:51:18.402Z,46.00
2019-01-27T11:53:47.460Z,78.33
2019-01-27T11:56:16.564Z,87.27
2019-01-27T11:58:45.620Z,70.20
2019-01-27T12:01:14.670Z,64.40
2019-01-27T12:03:43.815Z,51.60
2019-01-27T12:06:12.881Z,74.90
2019-01-27T12:08:41.937Z,53.43
2019-01-27T12:11:11.023Z,56.87
2019-01-27T12:13:40.073Z,42.47
2019-01-27T12:16:09.955Z,44.73
2019-01-27T12:18:39.032Z,49.87
2019-01-27T12:21:08.096Z,52.90
2019-01-27T12:23:37.210Z,57.70
2019-01-27T12:26:06.336Z,69.27
2019-01-27T12:28:35.390Z,52.80
2019-01-27T12:31:04.445Z,55.03
2019-01-27T12:33:33.519Z,49.87
2019-01-27T12:36:02.566Z,47.87
2019-01-27T12:38:31.622Z,37.73
2019-01-27T12:41:00.805Z,44.53
2019-01-27T12:43:29.855Z,42.57
2019-01-27T12:45:58.924Z,57.80
2019-01-27T12:48:28.045Z,76.33
2019-01-27T12:50:57.110Z,59.90
2019-01-27T12:53:26.165Z,59.00
2019-01-27T12:55:55.250Z,48.60
2019-01-27T12:58:24.304Z,48.47
2019-01-27T13:00:53.394Z,56.60
2019-01-27T13:03:22.484Z,37.93
2019-01-27T13:05:51.545Z,61.07
2019-01-27T13:08:20.606Z,51.70
2019-01-27T13:10:49.743Z,38.93
2019-01-27T13:13:18.807Z,56.27
2019-01-27T13:15:47.863Z,32.83
2019-01-27T13:18:16.945Z,50.53
2019-01-27T13:21:02.284Z,59.20
2019-01-27T13:23:31.939Z,54.07
2019-01-27T13:26:01.001Z,50.07
2019-01-27T13:28:30.062Z,50.37
2019-01-27T13:30:59.187Z,54.53
2019-01-27T13:33:28.232Z,50.17
2019-01-27T13:35:57.282Z,53.03
2019-01-27T13:38:26.374Z,50.83
2019-01-27T13:40:55.476Z,47.27
2019-01-27T13:43:24.467Z,48.07
2019-01-27T13:45:53.545Z,51.77
2019-01-27T13:48:22.619Z,43.10
2019-01-27T13:50:51.668Z,45.97
2019-01-27T13:53:20.759Z,31.60
2019-01-27T13:55:49.815Z,40.47
2019-01-27T13:58:18.877Z,40.90
2019-01-27T14:00:47.953Z,46.97
2019-01-27T14:03:17.009Z,50.93
2019-01-27T14:05:46.058Z,45.43
2019-01-27T14:08:15.135Z,48.67
2019-01-27T14:10:44.189Z,42.93
2019-01-27T14:13:13.249Z,57.60
2019-01-27T14:15:42.585Z,47.67
2019-01-27T14:18:11.640Z,32.37
2019-01-27T14:20:40.695Z,48.57
2019-01-27T14:23:09.774Z,45.93
2019-01-27T14:25:38.836Z,57.13
2019-01-27T14:28:07.891Z,53.20
2019-01-27T14:30:37.800Z,54.37
2019-01-27T14:33:06.870Z,48.10
2019-01-27T14:35:35.930Z,35.43
2019-01-27T14:38:05.032Z,49.80
2019-01-27T14:40:34.096Z,52.73
2019-01-27T14:43:03.154Z,48.23
2019-01-27T14:45:32.251Z,43.87
2019-01-27T14:48:01.280Z,44.47
2019-01-27T14:50:30.358Z,35.97
2019-01-27T14:52:59.439Z,50.57
2019-01-27T14:55:28.497Z,50.63
2019-01-27T14:57:57.887Z,54.87
2019-01-27T15:00:26.662Z,60.60
2019-01-27T15:02:55.716Z,54.97
2019-01-27T15:05:24.778Z,53.80
2019-01-27T15:07:53.870Z,58.33
2019-01-27T15:10:22.945Z,68.30
2019-01-27T15:12:52.006Z,55.93
2019-01-27T15:15:21.128Z,56.80
2019-01-27T15:17:50.145Z,68.97
2019-01-27T15:20:25.880Z,64.60
2019-01-27T15:22:54.934Z,60.77
2019-01-27T15:25:23.989Z,74.60
2019-01-27T15:27:53.069Z,70.20
2019-01-27T15:30:25.060Z,55.40
2019-01-27T15:32:54.153Z,20.13
2019-01-27T15:35:23.193Z,75.03
2019-01-27T15:37:52.252Z,54.07
2019-01-27T15:40:21.368Z,55.47
2019-01-27T15:42:50.439Z,57.70
2019-01-27T15:45:19.494Z,82.87
2019-01-27T15:47:48.575Z,57.57
2019-01-27T15:50:18.455Z,50.87
2019-01-27T15:52:47.511Z,58.37
2019-01-27T15:55:16.593Z,54.67
2019-01-27T15:57:45.660Z,75.90
2019-01-27T16:00:15.518Z,48.97
2019-01-27T16:02:44.740Z,69.57
2019-01-27T16:05:13.802Z,60.13
2019-01-27T16:07:42.882Z,57.30
2019-01-27T16:10:11.972Z,68.63
2019-01-27T16:12:41.036Z,61.33
2019-01-27T16:15:10.923Z,57.87
2019-01-27T16:17:40.050Z,52.63
2019-01-27T16:20:09.113Z,71.70
2019-01-27T16:22:39.076Z,68.60
2019-01-27T16:25:08.191Z,64.93
2019-01-27T16:27:37.253Z,65.07
2019-01-27T16:30:07.139Z,74.43
2019-01-27T16:32:36.235Z,71.27
2019-01-27T16:35:05.300Z,68.47
2019-01-27T16:37:34.359Z,69.27
2019-01-27T16:40:03.469Z,78.87
2019-01-27T16:42:32.514Z,69.03
2019-01-27T16:45:01.570Z,72.73
2019-01-27T16:47:30.671Z,76.67
2019-01-27T16:49:59.788Z,62.43
2019-01-27T16:52:28.856Z,70.03
2019-01-27T16:54:57.956Z,100.10
2019-01-27T16:57:27.007Z,71.20
2019-01-27T16:59:56.061Z,71.50
2019-01-27T17:02:25.146Z,80.13
2019-01-27T17:04:54.214Z,71.17
2019-01-27T17:07:23.305Z,76.50
2019-01-27T17:09:52.511Z,68.60
2019-01-27T17:12:21.604Z,73.10
2019-01-27T17:14:50.622Z,70.20
2019-01-27T17:17:19.708Z,74.60
2019-01-27T17:19:48.779Z,72.63
2019-01-27T17:22:17.843Z,64.57
2019-01-27T17:24:46.920Z,76.40
2019-01-27T17:27:16.001Z,75.97
2019-01-27T17:29:45.059Z,72.23
2019-01-27T17:32:14.344Z,79.90
2019-01-27T17:34:43.429Z,62.60
2019-01-27T17:37:12.491Z,71.97
2019-01-27T17:39:41.598Z,71.20
2019-01-27T17:42:10.656Z,67.07
2019-01-27T17:44:39.724Z,62.07
2019-01-27T17:47:08.816Z,82.63
2019-01-27T17:49:37.871Z,72.33
2019-01-27T17:52:06.922Z,83.23
2019-01-27T17:54:36.045Z,72.93
2019-01-27T17:57:05.105Z,66.77
2019-01-27T17:59:34.162Z,75.23
2019-01-27T18:02:06.068Z,72.53
2019-01-27T18:04:35.109Z,73.43
2019-01-27T18:07:04.170Z,68.27
2019-01-27T18:09:37.283Z,73.60
2019-01-27T18:14:49.727Z,73.50
2019-01-27T18:17:18.780Z,71.57
2019-01-27T18:19:47.847Z,74.77
2019-01-27T18:22:16.946Z,75.50
2019-01-27T18:24:46.975Z,87.87
2019-01-27T18:27:16.030Z,78.03
2019-01-27T18:29:45.132Z,72.07
2019-01-27T18:32:14.206Z,81.33
2019-01-27T18:34:43.260Z,76.20
2019-01-27T18:37:12.355Z,78.73
2019-01-27T18:39:41.412Z,71.97
2019-01-27T18:42:10.503Z,72.87
2019-01-27T18:44:39.593Z,79.17
2019-01-27T18:47:08.635Z,80.20
2019-01-27T18:49:37.721Z,73.27
2019-01-27T18:52:06.814Z,82.73
2019-01-27T18:54:37.831Z,78.37
2019-01-27T18:57:06.884Z,71.00
2019-01-27T18:59:41.443Z,83.50
2019-01-27T19:02:13.169Z,69.80
2019-01-27T19:04:41.508Z,76.50
2019-01-27T19:07:13.466Z,84.80
2019-01-27T19:09:42.560Z,75.33
2019-01-27T19:12:15.786Z,67.20
2019-01-27T19:14:44.880Z,70.00
2019-01-27T19:17:19.379Z,89.00
2019-01-27T19:19:48.431Z,77.20
2019-01-27T19:22:18.419Z,81.33
2019-01-27T19:24:53.972Z,76.27
2019-01-27T19:27:24.781Z,84.13
2019-01-27T19:29:55.723Z,78.10
2019-01-27T19:32:24.783Z,76.83
2019-01-27T19:34:55.784Z,78.93
2019-01-27T19:37:28.305Z,77.07
2019-01-27T19:40:01.112Z,85.80
2019-01-27T19:42:30.256Z,90.93
2019-01-27T19:45:05.191Z,117.60
2019-01-27T19:47:35.861Z,113.60
2019-01-27T19:50:04.918Z,79.57
2019-01-27T19:52:37.943Z,86.97
2019-01-27T19:55:08.811Z,70.83
2019-01-27T19:57:43.454Z,115.50
2019-01-27T20:00:14.006Z,96.20
2019-01-27T20:02:48.588Z,86.60
2019-01-27T20:05:18.595Z,92.00
2019-01-27T20:07:47.648Z,107.40
2019-01-27T20:10:16.755Z,89.37
2019-01-27T20:12:46.660Z,86.80
2019-01-27T20:15:16.554Z,94.27
2019-01-27T20:17:48.695Z,85.93
2019-01-27T20:20:23.214Z,86.37
2019-01-27T20:22:57.783Z,104.03
2019-01-27T20:25:26.869Z,82.83
2019-01-27T20:27:56.761Z,88.30
2019-01-27T20:30:25.837Z,88.93
2019-01-27T20:32:55.865Z,74.93
2019-01-27T20:35:27.903Z,80.27
2019-01-27T20:38:00.783Z,90.23
2019-01-27T20:40:29.859Z,78.83
2019-01-27T20:42:59.733Z,89.47
2019-01-27T20:45:31.721Z,89.90
2019-01-27T20:48:06.275Z,83.57
2019-01-27T20:53:19.780Z,78.00
2019-01-27T20:55:48.834Z,106.30
2019-01-27T20:58:17.898Z,78.50
2019-01-27T21:00:46.961Z,75.97
2019-01-27T21:03:21.036Z,76.47
2019-01-27T21:05:52.926Z,75.73
2019-01-27T21:08:22.054Z,69.40
2019-01-27T21:10:52.074Z,70.03
2019-01-27T21:13:26.135Z,73.13
2019-01-27T21:15:59.151Z,66.30
2019-01-27T21:18:29.230Z,73.93
2019-01-27T21:20:58.284Z,61.93
2019-01-27T21:23:27.343Z,72.17
2019-01-27T21:25:56.449Z,77.30
2019-01-27T21:28:25.503Z,66.73
2019-01-27T21:30:54.573Z,71.53
2019-01-27T21:33:23.665Z,53.07
2019-01-27T21:35:52.720Z,60.00
2019-01-27T21:38:21.788Z,58.00
2019-01-27T21:40:50.880Z,62.77
2019-01-27T21:43:19.942Z,61.53
2019-01-27T21:45:49.852Z,62.90
2019-01-27T21:48:18.956Z,70.90
2019-01-27T21:50:48.011Z,60.70
2019-01-27T21:53:17.074Z,53.43
2019-01-27T21:55:46.201Z,59.07
2019-01-27T21:58:15.259Z,56.30
2019-01-27T22:00:44.327Z,63.33
2019-01-27T22:03:13.461Z,59.27
2019-01-27T22:05:42.526Z,56.53
2019-01-27T22:08:11.589Z,58.53
2019-01-27T22:10:40.703Z,49.97
2019-01-27T22:13:09.738Z,54.27
2019-01-27T22:15:38.788Z,47.70
2019-01-27T22:18:07.888Z,46.27
2019-01-27T22:20:36.948Z,48.37
2019-01-27T22:23:06.188Z,45.67
2019-01-27T22:25:35.120Z,46.17
2019-01-27T22:28:04.173Z,53.07
2019-01-27T22:30:33.223Z,51.13
2019-01-27T22:33:02.435Z,46.97
2019-01-27T22:35:31.486Z,51.60
2019-01-27T22:38:00.540Z,47.20
2019-01-27T22:40:29.674Z,50.97
2019-01-27T22:42:58.706Z,47.93
2019-01-27T22:45:27.760Z,48.90
2019-01-27T22:47:56.846Z,45.13
2019-01-27T22:50:25.898Z,48.47
2019-01-27T22:52:54.948Z,46.73
2019-01-27T22:55:24.047Z,48.37
2019-01-27T22:57:53.114Z,50.93
2019-01-27T23:00:23.096Z,49.20
2019-01-27T23:02:52.173Z,52.70
2019-01-27T23:05:21.328Z,52.07
2019-01-27T23:07:50.391Z,51.90
2019-01-27T23:10:19.459Z,55.80
2019-01-27T23:12:48.509Z,52.70
2019-01-27T23:15:17.554Z,50.20
2019-01-27T23:17:46.666Z,47.47
2019-01-27T23:20:15.722Z,46.43
2019-01-27T23:22:44.770Z,46.63
2019-01-27T23:25:13.856Z,49.07
2019-01-27T23:27:42.906Z,45.40
2019-01-27T23:30:11.961Z,43.73
2019-01-27T23:32:41.041Z,47.47
2019-01-27T23:35:10.097Z,43.90
2019-01-27T23:37:39.144Z,44.07
2019-01-27T23:40:08.259Z,38.70
2019-01-27T23:42:37.305Z,43.30
2019-01-27T23:45:06.364Z,41.43
2019-01-27T23:47:35.430Z,41.00
2019-01-27T23:50:04.492Z,41.87
2019-01-27T23:52:33.548Z,40.67
2019-01-27T23:55:02.630Z,43.07
2019-01-27T23:57:31.674Z,43.13
